sensor_id;sensor_type;location;lat;lon;timestamp;P1;durP1;ratioP1;P2;durP2;ratioP2
16510;SDS011;8368;48.772;8.754;2023-05-10T00:00:42;0.20;;;0.20;;
16510;SDS011;8368;48.772;8.754;2023-05-10T00:03:08;0.10;;;0.10;;
16510;SDS011;8368;48.772;8.754;2023-05-10T00:05:33;0.10;;;0.10;;
16510;SDS011;8368;48.772;8.754;2023-05-10T00:07:59;0.20;;;0.20;;
16510;SDS011;8368;48.772;8.754;2023-05-10T00:10:24;0.20;;;0.20;;
16510;SDS011;8368;48.772;8.754;2023-05-10T00:12:50;0.23;;;0.23;;
16510;SDS011;8368;48.772;8.754;2023-05-10T00:15:15;0.20;;;0.20;;
16510;SDS011;8368;48.772;8.754;2023-05-10T00:17:41;0.20;;;0.20;;
16510;SDS011;8368;48.772;8.754;2023-05-10T00:20:06;0.20;;;0.20;;
16510;SDS011;8368;48.772;8.754;2023-05-10T00:22:32;0.20;;;0.20;;
16510;SDS011;8368;48.772;8.754;2023-05-10T00:24:58;0.20;;;0.20;;
16510;SDS011;8368;48.772;8.754;2023-05-10T00:27:24;0.20;;;0.20;;
16510;SDS011;8368;48.772;8.754;2023-05-10T00:29:49;0.17;;;0.17;;
16510;SDS011;8368;48.772;8.754;2023-05-10T00:32:15;0.30;;;0.30;;
16510;SDS011;8368;48.772;8.754;2023-05-10T00:34:41;0.20;;;0.20;;
16510;SDS011;8368;48.772;8.754;2023-05-10T00:37:06;0.20;;;0.20;;
16510;SDS011;8368;48.772;8.754;2023-05-10T00:39:32;0.30;;;0.30;;
16510;SDS011;8368;48.772;8.754;2023-05-10T00:41:57;0.30;;;0.30;;
16510;SDS011;8368;48.772;8.754;2023-05-10T00:44:23;0.30;;;0.30;;
16510;SDS011;8368;48.772;8.754;2023-05-10T00:46:48;0.20;;;0.20;;
16510;SDS011;8368;48.772;8.754;2023-05-10T00:49:14;0.20;;;0.20;;
16510;SDS011;8368;48.772;8.754;2023-05-10T00:51:41;0.30;;;0.30;;
16510;SDS011;8368;48.772;8.754;2023-05-10T00:54:08;0.20;;;0.20;;
16510;SDS011;8368;48.772;8.754;2023-05-10T00:56:36;0.23;;;0.23;;
16510;SDS011;8368;48.772;8.754;2023-05-10T00:59:01;0.20;;;0.20;;
16510;SDS011;8368;48.772;8.754;2023-05-10T01:01:27;0.20;;;0.20;;
16510;SDS011;8368;48.772;8.754;2023-05-10T01:03:54;0.20;;;0.20;;
16510;SDS011;8368;48.772;8.754;2023-05-10T01:06:20;0.30;;;0.30;;
16510;SDS011;8368;48.772;8.754;2023-05-10T01:08:46;0.30;;;0.30;;
16510;SDS011;8368;48.772;8.754;2023-05-10T01:11:12;0.20;;;0.20;;
16510;SDS011;8368;48.772;8.754;2023-05-10T01:13:38;0.40;;;0.40;;
16510;SDS011;8368;48.772;8.754;2023-05-10T01:16:06;0.30;;;0.30;;
16510;SDS011;8368;48.772;8.754;2023-05-10T01:18:36;0.40;;;0.40;;
16510;SDS011;8368;48.772;8.754;2023-05-10T01:21:29;0.60;;;0.60;;
16510;SDS011;8368;48.772;8.754;2023-05-10T01:26:51;0.37;;;0.37;;
16510;SDS011;8368;48.772;8.754;2023-05-10T01:30:01;0.40;;;0.40;;
16510;SDS011;8368;48.772;8.754;2023-05-10T01:38:14;0.50;;;0.50;;
16510;SDS011;8368;48.772;8.754;2023-05-10T01:43:54;0.70;;;0.70;;
16510;SDS011;8368;48.772;8.754;2023-05-10T01:46:32;0.60;;;0.60;;
16510;SDS011;8368;48.772;8.754;2023-05-10T01:49:07;0.70;;;0.70;;
16510;SDS011;8368;48.772;8.754;2023-05-10T01:51:36;0.57;;;0.57;;
16510;SDS011;8368;48.772;8.754;2023-05-10T01:54:11;0.80;;;0.80;;
16510;SDS011;8368;48.772;8.754;2023-05-10T01:56:39;0.80;;;0.80;;
16510;SDS011;8368;48.772;8.754;2023-05-10T01:59:08;1.03;;;1.03;;
16510;SDS011;8368;48.772;8.754;2023-05-10T02:01:40;1.00;;;1.00;;
16510;SDS011;8368;48.772;8.754;2023-05-10T02:04:06;0.67;;;0.67;;
16510;SDS011;8368;48.772;8.754;2023-05-10T02:06:33;0.80;;;0.80;;
16510;SDS011;8368;48.772;8.754;2023-05-10T02:09:01;0.87;;;0.87;;
16510;SDS011;8368;48.772;8.754;2023-05-10T02:11:28;0.80;;;0.80;;
16510;SDS011;8368;48.772;8.754;2023-05-10T02:13:55;1.00;;;1.00;;
16510;SDS011;8368;48.772;8.754;2023-05-10T02:16:23;0.77;;;0.77;;
16510;SDS011;8368;48.772;8.754;2023-05-10T02:18:51;0.90;;;0.90;;
16510;SDS011;8368;48.772;8.754;2023-05-10T02:21:17;1.03;;;1.03;;
16510;SDS011;8368;48.772;8.754;2023-05-10T02:23:45;1.00;;;1.00;;
16510;SDS011;8368;48.772;8.754;2023-05-10T02:26:13;1.13;;;1.13;;
16510;SDS011;8368;48.772;8.754;2023-05-10T02:28:40;0.90;;;0.90;;
16510;SDS011;8368;48.772;8.754;2023-05-10T02:31:07;1.27;;;1.27;;
16510;SDS011;8368;48.772;8.754;2023-05-10T02:33:35;1.20;;;1.10;;
16510;SDS011;8368;48.772;8.754;2023-05-10T02:36:03;0.87;;;0.87;;
16510;SDS011;8368;48.772;8.754;2023-05-10T02:38:30;0.83;;;0.83;;
16510;SDS011;8368;48.772;8.754;2023-05-10T02:40:57;1.13;;;1.13;;
16510;SDS011;8368;48.772;8.754;2023-05-10T02:43:24;3.20;;;1.23;;
16510;SDS011;8368;48.772;8.754;2023-05-10T02:45:50;1.17;;;1.17;;
16510;SDS011;8368;48.772;8.754;2023-05-10T02:48:16;1.20;;;1.20;;
16510;SDS011;8368;48.772;8.754;2023-05-10T02:50:43;1.03;;;1.03;;
16510;SDS011;8368;48.772;8.754;2023-05-10T02:53:10;0.80;;;0.80;;
16510;SDS011;8368;48.772;8.754;2023-05-10T02:55:44;1.10;;;1.10;;
16510;SDS011;8368;48.772;8.754;2023-05-10T02:58:12;1.30;;;1.30;;
16510;SDS011;8368;48.772;8.754;2023-05-10T03:00:38;1.30;;;1.30;;
16510;SDS011;8368;48.772;8.754;2023-05-10T03:03:03;1.00;;;0.90;;
16510;SDS011;8368;48.772;8.754;2023-05-10T03:05:29;1.03;;;1.03;;
16510;SDS011;8368;48.772;8.754;2023-05-10T03:07:54;0.87;;;0.87;;
16510;SDS011;8368;48.772;8.754;2023-05-10T03:10:21;1.13;;;1.13;;
16510;SDS011;8368;48.772;8.754;2023-05-10T03:20:48;1.10;;;1.10;;
16510;SDS011;8368;48.772;8.754;2023-05-10T03:23:22;4.27;;;0.97;;
16510;SDS011;8368;48.772;8.754;2023-05-10T03:26:14;0.97;;;0.97;;
16510;SDS011;8368;48.772;8.754;2023-05-10T03:28:45;0.90;;;0.90;;
16510;SDS011;8368;48.772;8.754;2023-05-10T03:31:12;1.10;;;1.10;;
16510;SDS011;8368;48.772;8.754;2023-05-10T03:33:45;1.10;;;1.00;;
16510;SDS011;8368;48.772;8.754;2023-05-10T03:36:14;1.10;;;1.10;;
16510;SDS011;8368;48.772;8.754;2023-05-10T03:38:40;1.07;;;1.07;;
16510;SDS011;8368;48.772;8.754;2023-05-10T03:41:06;0.83;;;0.83;;
16510;SDS011;8368;48.772;8.754;2023-05-10T03:43:32;2.20;;;0.73;;
16510;SDS011;8368;48.772;8.754;2023-05-10T03:45:57;0.87;;;0.87;;
16510;SDS011;8368;48.772;8.754;2023-05-10T03:48:23;1.13;;;1.13;;
16510;SDS011;8368;48.772;8.754;2023-05-10T03:50:48;1.77;;;0.90;;
16510;SDS011;8368;48.772;8.754;2023-05-10T03:53:14;0.83;;;0.83;;
16510;SDS011;8368;48.772;8.754;2023-05-10T03:55:40;1.00;;;1.00;;
16510;SDS011;8368;48.772;8.754;2023-05-10T03:58:06;0.90;;;0.90;;
16510;SDS011;8368;48.772;8.754;2023-05-10T04:00:31;0.93;;;0.93;;
16510;SDS011;8368;48.772;8.754;2023-05-10T04:02:57;1.27;;;1.17;;
16510;SDS011;8368;48.772;8.754;2023-05-10T04:05:23;0.90;;;0.90;;
16510;SDS011;8368;48.772;8.754;2023-05-10T04:07:48;0.80;;;0.80;;
16510;SDS011;8368;48.772;8.754;2023-05-10T04:10:15;1.97;;;1.00;;
16510;SDS011;8368;48.772;8.754;2023-05-10T04:12:41;1.00;;;1.00;;
16510;SDS011;8368;48.772;8.754;2023-05-10T04:15:07;0.70;;;0.70;;
16510;SDS011;8368;48.772;8.754;2023-05-10T04:17:33;2.27;;;0.93;;
16510;SDS011;8368;48.772;8.754;2023-05-10T04:19:58;1.00;;;1.00;;
16510;SDS011;8368;48.772;8.754;2023-05-10T04:22:24;1.20;;;1.20;;
16510;SDS011;8368;48.772;8.754;2023-05-10T04:24:49;1.70;;;1.00;;
16510;SDS011;8368;48.772;8.754;2023-05-10T04:27:15;1.30;;;1.30;;
16510;SDS011;8368;48.772;8.754;2023-05-10T04:29:41;0.90;;;0.90;;
16510;SDS011;8368;48.772;8.754;2023-05-10T04:32:06;1.10;;;1.10;;
16510;SDS011;8368;48.772;8.754;2023-05-10T04:34:32;0.93;;;0.93;;
16510;SDS011;8368;48.772;8.754;2023-05-10T04:36:59;0.87;;;0.87;;
16510;SDS011;8368;48.772;8.754;2023-05-10T04:39:24;0.80;;;0.80;;
16510;SDS011;8368;48.772;8.754;2023-05-10T04:41:50;1.10;;;1.10;;
16510;SDS011;8368;48.772;8.754;2023-05-10T04:44:15;1.00;;;1.00;;
16510;SDS011;8368;48.772;8.754;2023-05-10T04:46:41;1.20;;;1.20;;
16510;SDS011;8368;48.772;8.754;2023-05-10T04:49:06;0.90;;;0.90;;
16510;SDS011;8368;48.772;8.754;2023-05-10T04:51:32;1.00;;;1.00;;
16510;SDS011;8368;48.772;8.754;2023-05-10T04:53:57;1.30;;;1.30;;
16510;SDS011;8368;48.772;8.754;2023-05-10T04:56:23;1.23;;;1.13;;
16510;SDS011;8368;48.772;8.754;2023-05-10T04:58:48;1.10;;;1.10;;
16510;SDS011;8368;48.772;8.754;2023-05-10T05:01:14;1.13;;;1.13;;
16510;SDS011;8368;48.772;8.754;2023-05-10T05:03:40;0.90;;;0.90;;
16510;SDS011;8368;48.772;8.754;2023-05-10T05:06:05;1.40;;;1.40;;
16510;SDS011;8368;48.772;8.754;2023-05-10T05:08:31;1.13;;;1.10;;
16510;SDS011;8368;48.772;8.754;2023-05-10T05:10:57;1.17;;;1.17;;
16510;SDS011;8368;48.772;8.754;2023-05-10T05:13:22;1.00;;;1.00;;
16510;SDS011;8368;48.772;8.754;2023-05-10T05:15:48;1.30;;;1.30;;
16510;SDS011;8368;48.772;8.754;2023-05-10T05:18:13;1.30;;;1.30;;
16510;SDS011;8368;48.772;8.754;2023-05-10T05:20:39;1.00;;;1.00;;
16510;SDS011;8368;48.772;8.754;2023-05-10T05:23:04;1.40;;;1.40;;
16510;SDS011;8368;48.772;8.754;2023-05-10T05:25:30;1.03;;;1.03;;
16510;SDS011;8368;48.772;8.754;2023-05-10T05:27:56;1.10;;;1.10;;
16510;SDS011;8368;48.772;8.754;2023-05-10T05:30:21;1.50;;;1.50;;
16510;SDS011;8368;48.772;8.754;2023-05-10T05:32:47;1.37;;;1.37;;
16510;SDS011;8368;48.772;8.754;2023-05-10T05:35:12;1.33;;;1.33;;
16510;SDS011;8368;48.772;8.754;2023-05-10T05:37:38;1.17;;;1.17;;
16510;SDS011;8368;48.772;8.754;2023-05-10T05:40:04;1.37;;;1.37;;
16510;SDS011;8368;48.772;8.754;2023-05-10T05:42:30;1.30;;;1.30;;
16510;SDS011;8368;48.772;8.754;2023-05-10T05:44:56;1.40;;;1.30;;
16510;SDS011;8368;48.772;8.754;2023-05-10T05:47:22;1.40;;;1.40;;
16510;SDS011;8368;48.772;8.754;2023-05-10T05:49:47;1.20;;;1.20;;
16510;SDS011;8368;48.772;8.754;2023-05-10T05:52:13;1.20;;;1.20;;
16510;SDS011;8368;48.772;8.754;2023-05-10T05:54:38;1.27;;;1.27;;
16510;SDS011;8368;48.772;8.754;2023-05-10T05:57:04;1.40;;;1.30;;
16510;SDS011;8368;48.772;8.754;2023-05-10T05:59:30;1.17;;;1.10;;
16510;SDS011;8368;48.772;8.754;2023-05-10T06:01:55;1.00;;;1.00;;
16510;SDS011;8368;48.772;8.754;2023-05-10T06:04:21;1.00;;;1.00;;
16510;SDS011;8368;48.772;8.754;2023-05-10T06:06:46;1.20;;;1.20;;
16510;SDS011;8368;48.772;8.754;2023-05-10T06:09:12;1.03;;;1.03;;
16510;SDS011;8368;48.772;8.754;2023-05-10T06:11:37;1.13;;;1.07;;
16510;SDS011;8368;48.772;8.754;2023-05-10T06:14:03;1.20;;;1.20;;
16510;SDS011;8368;48.772;8.754;2023-05-10T06:16:29;1.17;;;1.17;;
16510;SDS011;8368;48.772;8.754;2023-05-10T06:18:55;0.90;;;0.90;;
16510;SDS011;8368;48.772;8.754;2023-05-10T06:21:21;1.43;;;1.30;;
16510;SDS011;8368;48.772;8.754;2023-05-10T06:23:47;0.97;;;0.97;;
16510;SDS011;8368;48.772;8.754;2023-05-10T06:26:13;1.10;;;1.10;;
16510;SDS011;8368;48.772;8.754;2023-05-10T06:28:39;1.30;;;1.30;;
16510;SDS011;8368;48.772;8.754;2023-05-10T06:31:05;0.90;;;0.90;;
16510;SDS011;8368;48.772;8.754;2023-05-10T06:33:31;1.10;;;1.10;;
16510;SDS011;8368;48.772;8.754;2023-05-10T06:35:57;1.00;;;1.00;;
16510;SDS011;8368;48.772;8.754;2023-05-10T06:38:23;1.00;;;0.90;;
16510;SDS011;8368;48.772;8.754;2023-05-10T06:40:48;0.90;;;0.90;;
16510;SDS011;8368;48.772;8.754;2023-05-10T06:43:14;1.90;;;1.00;;
16510;SDS011;8368;48.772;8.754;2023-05-10T06:45:40;1.00;;;1.00;;
16510;SDS011;8368;48.772;8.754;2023-05-10T06:48:06;0.70;;;0.70;;
16510;SDS011;8368;48.772;8.754;2023-05-10T06:50:31;0.70;;;0.70;;
16510;SDS011;8368;48.772;8.754;2023-05-10T06:52:58;0.93;;;0.93;;
16510;SDS011;8368;48.772;8.754;2023-05-10T06:55:24;0.90;;;0.90;;
16510;SDS011;8368;48.772;8.754;2023-05-10T06:57:49;0.75;;;0.75;;
16510;SDS011;8368;48.772;8.754;2023-05-10T07:00:15;0.60;;;0.60;;
16510;SDS011;8368;48.772;8.754;2023-05-10T07:02:41;0.60;;;0.60;;
16510;SDS011;8368;48.772;8.754;2023-05-10T07:05:07;0.70;;;0.70;;
16510;SDS011;8368;48.772;8.754;2023-05-10T07:07:33;0.35;;;0.35;;
16510;SDS011;8368;48.772;8.754;2023-05-10T07:09:59;0.60;;;0.60;;
16510;SDS011;8368;48.772;8.754;2023-05-10T07:12:24;0.93;;;0.50;;
16510;SDS011;8368;48.772;8.754;2023-05-10T07:14:50;0.43;;;0.43;;
16510;SDS011;8368;48.772;8.754;2023-05-10T07:17:15;0.40;;;0.40;;
16510;SDS011;8368;48.772;8.754;2023-05-10T07:19:41;0.93;;;0.50;;
16510;SDS011;8368;48.772;8.754;2023-05-10T07:22:06;2.30;;;0.60;;
16510;SDS011;8368;48.772;8.754;2023-05-10T07:24:32;0.43;;;0.43;;
16510;SDS011;8368;48.772;8.754;2023-05-10T07:26:58;0.40;;;0.40;;
16510;SDS011;8368;48.772;8.754;2023-05-10T07:29:24;0.70;;;0.70;;
16510;SDS011;8368;48.772;8.754;2023-05-10T07:31:50;0.80;;;0.80;;
16510;SDS011;8368;48.772;8.754;2023-05-10T07:34:15;0.50;;;0.50;;
16510;SDS011;8368;48.772;8.754;2023-05-10T07:36:41;0.30;;;0.30;;
16510;SDS011;8368;48.772;8.754;2023-05-10T07:39:06;0.90;;;0.52;;
16510;SDS011;8368;48.772;8.754;2023-05-10T07:41:32;0.38;;;0.38;;
16510;SDS011;8368;48.772;8.754;2023-05-10T07:43:57;0.40;;;0.40;;
16510;SDS011;8368;48.772;8.754;2023-05-10T07:46:23;0.35;;;0.35;;
16510;SDS011;8368;48.772;8.754;2023-05-10T07:48:49;0.40;;;0.40;;
16510;SDS011;8368;48.772;8.754;2023-05-10T07:51:14;0.38;;;0.38;;
16510;SDS011;8368;48.772;8.754;2023-05-10T07:53:40;0.40;;;0.40;;
16510;SDS011;8368;48.772;8.754;2023-05-10T07:58:57;0.40;;;0.40;;
16510;SDS011;8368;48.772;8.754;2023-05-10T08:01:25;0.77;;;0.50;;
16510;SDS011;8368;48.772;8.754;2023-05-10T08:03:51;0.40;;;0.40;;
16510;SDS011;8368;48.772;8.754;2023-05-10T08:06:18;0.30;;;0.30;;
16510;SDS011;8368;48.772;8.754;2023-05-10T08:08:45;0.30;;;0.30;;
16510;SDS011;8368;48.772;8.754;2023-05-10T08:11:14;0.52;;;0.40;;
16510;SDS011;8368;48.772;8.754;2023-05-10T08:13:43;0.40;;;0.40;;
16510;SDS011;8368;48.772;8.754;2023-05-10T08:16:09;0.28;;;0.28;;
16510;SDS011;8368;48.772;8.754;2023-05-10T08:18:35;0.43;;;0.43;;
16510;SDS011;8368;48.772;8.754;2023-05-10T08:21:01;0.20;;;0.20;;
16510;SDS011;8368;48.772;8.754;2023-05-10T08:23:27;0.40;;;0.40;;
16510;SDS011;8368;48.772;8.754;2023-05-10T08:25:52;0.38;;;0.38;;
16510;SDS011;8368;48.772;8.754;2023-05-10T08:28:18;0.30;;;0.30;;
16510;SDS011;8368;48.772;8.754;2023-05-10T08:30:43;0.30;;;0.30;;
16510;SDS011;8368;48.772;8.754;2023-05-10T08:33:09;0.25;;;0.25;;
16510;SDS011;8368;48.772;8.754;2023-05-10T08:35:35;0.40;;;0.40;;
16510;SDS011;8368;48.772;8.754;2023-05-10T08:38:00;0.30;;;0.30;;
16510;SDS011;8368;48.772;8.754;2023-05-10T08:40:26;0.40;;;0.40;;
16510;SDS011;8368;48.772;8.754;2023-05-10T08:43:25;0.35;;;0.35;;
16510;SDS011;8368;48.772;8.754;2023-05-10T08:45:44;0.30;;;0.30;;
16510;SDS011;8368;48.772;8.754;2023-05-10T08:48:13;0.32;;;0.32;;
16510;SDS011;8368;48.772;8.754;2023-05-10T08:50:40;0.47;;;0.47;;
16510;SDS011;8368;48.772;8.754;2023-05-10T08:53:11;0.30;;;0.30;;
16510;SDS011;8368;48.772;8.754;2023-05-10T08:55:38;0.30;;;0.30;;
16510;SDS011;8368;48.772;8.754;2023-05-10T08:58:05;0.30;;;0.30;;
16510;SDS011;8368;48.772;8.754;2023-05-10T09:00:31;0.50;;;0.50;;
16510;SDS011;8368;48.772;8.754;2023-05-10T09:02:58;0.30;;;0.30;;
16510;SDS011;8368;48.772;8.754;2023-05-10T09:05:24;0.30;;;0.30;;
16510;SDS011;8368;48.772;8.754;2023-05-10T09:07:50;0.30;;;0.30;;
16510;SDS011;8368;48.772;8.754;2023-05-10T09:10:15;0.45;;;0.45;;
16510;SDS011;8368;48.772;8.754;2023-05-10T09:12:41;0.30;;;0.30;;
16510;SDS011;8368;48.772;8.754;2023-05-10T09:15:09;0.32;;;0.32;;
16510;SDS011;8368;48.772;8.754;2023-05-10T09:17:35;0.40;;;0.40;;
16510;SDS011;8368;48.772;8.754;2023-05-10T09:20:02;0.57;;;0.20;;
16510;SDS011;8368;48.772;8.754;2023-05-10T09:22:32;0.90;;;0.40;;
16510;SDS011;8368;48.772;8.754;2023-05-10T09:25:08;0.30;;;0.30;;
16510;SDS011;8368;48.772;8.754;2023-05-10T09:27:39;0.50;;;0.25;;
16510;SDS011;8368;48.772;8.754;2023-05-10T09:30:06;0.50;;;0.50;;
16510;SDS011;8368;48.772;8.754;2023-05-10T09:32:37;0.30;;;0.30;;
16510;SDS011;8368;48.772;8.754;2023-05-10T09:35:18;0.40;;;0.40;;
16510;SDS011;8368;48.772;8.754;2023-05-10T09:37:46;0.47;;;0.47;;
16510;SDS011;8368;48.772;8.754;2023-05-10T09:40:14;1.27;;;0.60;;
16510;SDS011;8368;48.772;8.754;2023-05-10T09:42:41;0.40;;;0.40;;
16510;SDS011;8368;48.772;8.754;2023-05-10T09:45:15;0.30;;;0.30;;
16510;SDS011;8368;48.772;8.754;2023-05-10T09:47:40;0.50;;;0.50;;
16510;SDS011;8368;48.772;8.754;2023-05-10T09:50:06;0.40;;;0.40;;
16510;SDS011;8368;48.772;8.754;2023-05-10T09:52:48;0.82;;;0.80;;
16510;SDS011;8368;48.772;8.754;2023-05-10T09:55:22;0.32;;;0.32;;
16510;SDS011;8368;48.772;8.754;2023-05-10T09:57:48;0.32;;;0.32;;
16510;SDS011;8368;48.772;8.754;2023-05-10T10:00:23;0.40;;;0.40;;
16510;SDS011;8368;48.772;8.754;2023-05-10T10:02:56;0.63;;;0.63;;
16510;SDS011;8368;48.772;8.754;2023-05-10T10:05:29;0.30;;;0.30;;
16510;SDS011;8368;48.772;8.754;2023-05-10T10:07:56;0.35;;;0.35;;
16510;SDS011;8368;48.772;8.754;2023-05-10T10:10:23;0.40;;;0.40;;
16510;SDS011;8368;48.772;8.754;2023-05-10T10:12:50;0.40;;;0.40;;
16510;SDS011;8368;48.772;8.754;2023-05-10T10:15:16;0.77;;;0.40;;
16510;SDS011;8368;48.772;8.754;2023-05-10T10:17:42;0.40;;;0.40;;
16510;SDS011;8368;48.772;8.754;2023-05-10T10:20:09;0.60;;;0.60;;
16510;SDS011;8368;48.772;8.754;2023-05-10T10:22:36;0.60;;;0.60;;
16510;SDS011;8368;48.772;8.754;2023-05-10T10:25:02;0.40;;;0.40;;
16510;SDS011;8368;48.772;8.754;2023-05-10T10:30:21;0.30;;;0.30;;
16510;SDS011;8368;48.772;8.754;2023-05-10T10:33:09;0.50;;;0.50;;
16510;SDS011;8368;48.772;8.754;2023-05-10T10:35:48;0.40;;;0.40;;
16510;SDS011;8368;48.772;8.754;2023-05-10T10:38:15;0.40;;;0.40;;
16510;SDS011;8368;48.772;8.754;2023-05-10T10:40:42;0.87;;;0.47;;
16510;SDS011;8368;48.772;8.754;2023-05-10T10:43:26;0.30;;;0.30;;
16510;SDS011;8368;48.772;8.754;2023-05-10T10:48:39;0.55;;;0.55;;
16510;SDS011;8368;48.772;8.754;2023-05-10T10:51:37;0.40;;;0.40;;
16510;SDS011;8368;48.772;8.754;2023-05-10T10:54:09;0.53;;;0.53;;
16510;SDS011;8368;48.772;8.754;2023-05-10T10:56:36;0.53;;;0.30;;
16510;SDS011;8368;48.772;8.754;2023-05-10T10:59:01;1.80;;;0.47;;
16510;SDS011;8368;48.772;8.754;2023-05-10T11:01:27;2.53;;;0.60;;
16510;SDS011;8368;48.772;8.754;2023-05-10T11:06:30;0.50;;;0.50;;
16510;SDS011;8368;48.772;8.754;2023-05-10T11:09:06;0.47;;;0.47;;
16510;SDS011;8368;48.772;8.754;2023-05-10T11:11:34;0.50;;;0.50;;
16510;SDS011;8368;48.772;8.754;2023-05-10T11:14:03;0.60;;;0.60;;
16510;SDS011;8368;48.772;8.754;2023-05-10T11:16:40;0.47;;;0.47;;
16510;SDS011;8368;48.772;8.754;2023-05-10T11:19:09;0.60;;;0.60;;
16510;SDS011;8368;48.772;8.754;2023-05-10T11:21:49;0.60;;;0.60;;
16510;SDS011;8368;48.772;8.754;2023-05-10T11:24:30;1.80;;;0.65;;
16510;SDS011;8368;48.772;8.754;2023-05-10T11:26:56;0.70;;;0.70;;
16510;SDS011;8368;48.772;8.754;2023-05-10T11:29:21;0.80;;;0.80;;
16510;SDS011;8368;48.772;8.754;2023-05-10T11:31:48;0.60;;;0.60;;
16510;SDS011;8368;48.772;8.754;2023-05-10T11:34:24;0.60;;;0.60;;
16510;SDS011;8368;48.772;8.754;2023-05-10T11:36:51;0.60;;;0.60;;
16510;SDS011;8368;48.772;8.754;2023-05-10T11:39:18;0.68;;;0.68;;
16510;SDS011;8368;48.772;8.754;2023-05-10T11:41:46;0.70;;;0.70;;
16510;SDS011;8368;48.772;8.754;2023-05-10T11:44:13;0.60;;;0.60;;
16510;SDS011;8368;48.772;8.754;2023-05-10T11:46:39;0.70;;;0.70;;
16510;SDS011;8368;48.772;8.754;2023-05-10T11:49:05;0.70;;;0.70;;
16510;SDS011;8368;48.772;8.754;2023-05-10T11:51:36;0.40;;;0.40;;
16510;SDS011;8368;48.772;8.754;2023-05-10T11:54:05;0.60;;;0.60;;
16510;SDS011;8368;48.772;8.754;2023-05-10T11:56:33;0.30;;;0.30;;
16510;SDS011;8368;48.772;8.754;2023-05-10T11:58:59;0.60;;;0.60;;
16510;SDS011;8368;48.772;8.754;2023-05-10T12:01:27;0.60;;;0.60;;
16510;SDS011;8368;48.772;8.754;2023-05-10T12:03:53;0.60;;;0.60;;
16510;SDS011;8368;48.772;8.754;2023-05-10T12:06:20;2.80;;;0.70;;
16510;SDS011;8368;48.772;8.754;2023-05-10T12:08:47;0.60;;;0.60;;
16510;SDS011;8368;48.772;8.754;2023-05-10T12:11:13;0.70;;;0.63;;
16510;SDS011;8368;48.772;8.754;2023-05-10T12:13:42;0.52;;;0.52;;
16510;SDS011;8368;48.772;8.754;2023-05-10T12:16:13;0.70;;;0.70;;
16510;SDS011;8368;48.772;8.754;2023-05-10T12:18:40;0.68;;;0.68;;
16510;SDS011;8368;48.772;8.754;2023-05-10T12:21:07;1.95;;;0.60;;
16510;SDS011;8368;48.772;8.754;2023-05-10T12:23:35;1.75;;;0.55;;
16510;SDS011;8368;48.772;8.754;2023-05-10T12:26:01;0.60;;;0.60;;
16510;SDS011;8368;48.772;8.754;2023-05-10T12:28:29;0.60;;;0.60;;
16510;SDS011;8368;48.772;8.754;2023-05-10T12:30:57;0.90;;;0.90;;
16510;SDS011;8368;48.772;8.754;2023-05-10T12:33:23;0.80;;;0.80;;
16510;SDS011;8368;48.772;8.754;2023-05-10T12:35:50;0.70;;;0.70;;
16510;SDS011;8368;48.772;8.754;2023-05-10T12:38:32;1.10;;;0.60;;
16510;SDS011;8368;48.772;8.754;2023-05-10T12:40:59;0.38;;;0.38;;
16510;SDS011;8368;48.772;8.754;2023-05-10T12:43:26;0.57;;;0.57;;
16510;SDS011;8368;48.772;8.754;2023-05-10T12:45:52;0.85;;;0.50;;
16510;SDS011;8368;48.772;8.754;2023-05-10T12:48:17;0.40;;;0.40;;
16510;SDS011;8368;48.772;8.754;2023-05-10T12:50:43;0.50;;;0.50;;
16510;SDS011;8368;48.772;8.754;2023-05-10T12:53:09;0.32;;;0.32;;
16510;SDS011;8368;48.772;8.754;2023-05-10T12:55:34;0.50;;;0.50;;
16510;SDS011;8368;48.772;8.754;2023-05-10T12:58:00;0.43;;;0.43;;
16510;SDS011;8368;48.772;8.754;2023-05-10T13:00:25;0.55;;;0.55;;
16510;SDS011;8368;48.772;8.754;2023-05-10T13:02:51;0.50;;;0.50;;
16510;SDS011;8368;48.772;8.754;2023-05-10T13:05:17;1.85;;;0.40;;
16510;SDS011;8368;48.772;8.754;2023-05-10T13:07:42;0.93;;;0.50;;
16510;SDS011;8368;48.772;8.754;2023-05-10T13:10:09;0.40;;;0.40;;
16510;SDS011;8368;48.772;8.754;2023-05-10T13:12:35;1.13;;;0.52;;
16510;SDS011;8368;48.772;8.754;2023-05-10T13:15:00;0.95;;;0.95;;
16510;SDS011;8368;48.772;8.754;2023-05-10T13:17:26;0.50;;;0.50;;
16510;SDS011;8368;48.772;8.754;2023-05-10T13:19:52;0.50;;;0.50;;
16510;SDS011;8368;48.772;8.754;2023-05-10T13:22:17;0.38;;;0.38;;
16510;SDS011;8368;48.772;8.754;2023-05-10T13:24:43;0.40;;;0.40;;
16510;SDS011;8368;48.772;8.754;2023-05-10T13:27:08;1.48;;;0.60;;
16510;SDS011;8368;48.772;8.754;2023-05-10T13:29:34;0.43;;;0.43;;
16510;SDS011;8368;48.772;8.754;2023-05-10T13:31:59;0.40;;;0.40;;
16510;SDS011;8368;48.772;8.754;2023-05-10T13:34:25;0.57;;;0.52;;
16510;SDS011;8368;48.772;8.754;2023-05-10T13:36:51;0.45;;;0.45;;
16510;SDS011;8368;48.772;8.754;2023-05-10T13:39:17;0.40;;;0.40;;
16510;SDS011;8368;48.772;8.754;2023-05-10T13:41:43;1.25;;;0.43;;
16510;SDS011;8368;48.772;8.754;2023-05-10T13:44:08;0.50;;;0.50;;
16510;SDS011;8368;48.772;8.754;2023-05-10T13:46:37;0.30;;;0.30;;
16510;SDS011;8368;48.772;8.754;2023-05-10T13:49:03;0.50;;;0.50;;
16510;SDS011;8368;48.772;8.754;2023-05-10T13:51:29;0.40;;;0.40;;
16510;SDS011;8368;48.772;8.754;2023-05-10T13:53:54;1.83;;;0.50;;
16510;SDS011;8368;48.772;8.754;2023-05-10T13:56:20;0.40;;;0.40;;
16510;SDS011;8368;48.772;8.754;2023-05-10T13:58:45;0.73;;;0.73;;
16510;SDS011;8368;48.772;8.754;2023-05-10T14:01:11;0.57;;;0.57;;
16510;SDS011;8368;48.772;8.754;2023-05-10T14:03:37;1.15;;;0.90;;
16510;SDS011;8368;48.772;8.754;2023-05-10T14:06:02;0.50;;;0.50;;
16510;SDS011;8368;48.772;8.754;2023-05-10T14:08:28;0.63;;;0.63;;
16510;SDS011;8368;48.772;8.754;2023-05-10T14:10:53;0.40;;;0.40;;
16510;SDS011;8368;48.772;8.754;2023-05-10T14:13:21;0.40;;;0.40;;
16510;SDS011;8368;48.772;8.754;2023-05-10T14:15:46;0.43;;;0.43;;
16510;SDS011;8368;48.772;8.754;2023-05-10T14:18:12;0.40;;;0.40;;
16510;SDS011;8368;48.772;8.754;2023-05-10T14:20:37;1.02;;;1.02;;
16510;SDS011;8368;48.772;8.754;2023-05-10T14:23:03;0.73;;;0.73;;
16510;SDS011;8368;48.772;8.754;2023-05-10T14:25:28;0.50;;;0.50;;
16510;SDS011;8368;48.772;8.754;2023-05-10T14:27:54;1.50;;;0.40;;
16510;SDS011;8368;48.772;8.754;2023-05-10T14:30:20;0.38;;;0.30;;
16510;SDS011;8368;48.772;8.754;2023-05-10T14:32:45;0.40;;;0.40;;
16510;SDS011;8368;48.772;8.754;2023-05-10T14:35:11;0.60;;;0.60;;
16510;SDS011;8368;48.772;8.754;2023-05-10T14:37:37;0.55;;;0.50;;
16510;SDS011;8368;48.772;8.754;2023-05-10T14:40:03;0.47;;;0.47;;
16510;SDS011;8368;48.772;8.754;2023-05-10T14:42:29;0.30;;;0.30;;
16510;SDS011;8368;48.772;8.754;2023-05-10T14:44:56;0.40;;;0.40;;
16510;SDS011;8368;48.772;8.754;2023-05-10T14:47:21;0.38;;;0.38;;
16510;SDS011;8368;48.772;8.754;2023-05-10T14:49:47;0.88;;;0.50;;
16510;SDS011;8368;48.772;8.754;2023-05-10T14:52:12;0.40;;;0.40;;
16510;SDS011;8368;48.772;8.754;2023-05-10T14:54:39;0.60;;;0.60;;
16510;SDS011;8368;48.772;8.754;2023-05-10T14:57:05;0.40;;;0.40;;
16510;SDS011;8368;48.772;8.754;2023-05-10T14:59:31;0.50;;;0.50;;
16510;SDS011;8368;48.772;8.754;2023-05-10T15:01:56;1.90;;;0.35;;
16510;SDS011;8368;48.772;8.754;2023-05-10T15:04:22;0.30;;;0.30;;
16510;SDS011;8368;48.772;8.754;2023-05-10T15:06:47;0.30;;;0.30;;
16510;SDS011;8368;48.772;8.754;2023-05-10T15:09:13;0.30;;;0.30;;
16510;SDS011;8368;48.772;8.754;2023-05-10T15:11:39;1.95;;;0.50;;
16510;SDS011;8368;48.772;8.754;2023-05-10T15:14:04;0.45;;;0.45;;
16510;SDS011;8368;48.772;8.754;2023-05-10T15:16:30;0.57;;;0.57;;
16510;SDS011;8368;48.772;8.754;2023-05-10T15:18:55;0.40;;;0.40;;
16510;SDS011;8368;48.772;8.754;2023-05-10T15:21:21;1.45;;;0.35;;
16510;SDS011;8368;48.772;8.754;2023-05-10T15:23:46;0.50;;;0.50;;
16510;SDS011;8368;48.772;8.754;2023-05-10T15:26:12;0.40;;;0.40;;
16510;SDS011;8368;48.772;8.754;2023-05-10T15:28:37;0.38;;;0.38;;
16510;SDS011;8368;48.772;8.754;2023-05-10T15:31:03;0.55;;;0.30;;